createdAt,value
2022-09-20T00:04:45.523Z,0.68
2022-09-20T00:09:36.201Z,0.90
2022-09-20T00:14:27.756Z,0.60
2022-09-20T00:19:24.269Z,0.70
2022-09-20T00:24:16.060Z,0.85
2022-09-20T00:29:08.020Z,0.60
2022-09-20T00:34:11.075Z,0.70
2022-09-20T00:39:07.937Z,0.63
2022-09-20T00:43:59.026Z,0.70
2022-09-20T00:48:49.943Z,0.80
2022-09-20T00:53:43.700Z,0.87
2022-09-20T00:58:41.300Z,0.50
2022-09-20T01:03:34.189Z,0.57
2022-09-20T01:08:29.213Z,0.40
2022-09-20T01:13:21.963Z,0.55
2022-09-20T01:18:15.788Z,0.80
2022-09-20T01:23:20.110Z,0.50
2022-09-20T01:28:13.375Z,0.90
2022-09-20T01:33:14.369Z,0.60
2022-09-20T01:38:22.147Z,0.70
2022-09-20T01:43:21.550Z,0.68
2022-09-20T01:48:21.845Z,0.80
2022-09-20T01:53:43.499Z,0.80
2022-09-20T01:59:25.158Z,0.75
2022-09-20T02:04:57.205Z,0.60
2022-09-20T02:10:19.473Z,0.68
2022-09-20T02:15:28.279Z,0.90
2022-09-20T02:20:35.146Z,0.80
2022-09-20T02:25:44.631Z,0.60
2022-09-20T02:30:51.400Z,0.70
2022-09-20T02:36:01.617Z,0.80
2022-09-20T02:41:14.536Z,0.80
2022-09-20T02:46:18.878Z,1.00
2022-09-20T02:51:18.742Z,0.60
2022-09-20T02:56:18.022Z,0.77
2022-09-20T03:01:29.250Z,0.85
2022-09-20T03:06:36.250Z,0.82
2022-09-20T03:11:35.180Z,0.60
2022-09-20T03:16:37.665Z,0.80
2022-09-20T03:21:39.065Z,0.70
2022-09-20T03:26:41.270Z,0.60
2022-09-20T03:31:48.305Z,0.93
2022-09-20T03:36:53.243Z,0.70
2022-09-20T03:41:58.121Z,0.60
2022-09-20T03:46:55.262Z,0.50
2022-09-20T03:51:52.133Z,0.63
2022-09-20T03:57:16.060Z,0.70
2022-09-20T04:02:27.485Z,0.52
2022-09-20T04:07:24.883Z,0.67
2022-09-20T04:12:26.956Z,0.80
2022-09-20T04:17:34.797Z,0.85
2022-09-20T04:22:28.314Z,0.90
2022-09-20T04:27:24.781Z,0.70
2022-09-20T04:32:24.823Z,0.80
2022-09-20T04:37:26.148Z,0.90
2022-09-20T04:42:45.298Z,0.88
2022-09-20T04:48:13.649Z,0.60
2022-09-20T04:53:44.722Z,0.70
2022-09-20T04:58:51.369Z,0.40
2022-09-20T05:04:11.118Z,0.50
2022-09-20T05:09:29.276Z,0.47
2022-09-20T05:14:51.584Z,0.40
2022-09-20T05:20:01.868Z,0.40
2022-09-20T05:25:43.449Z,0.50
2022-09-20T05:30:41.067Z,0.40
2022-09-20T05:35:41.942Z,0.50
2022-09-20T05:40:40.286Z,0.50
2022-09-20T05:46:01.877Z,0.43
2022-09-20T05:51:03.856Z,0.45
2022-09-20T05:56:09.552Z,0.55
2022-09-20T06:01:05.947Z,0.40
2022-09-20T06:06:07.118Z,0.60
2022-09-20T06:11:21.384Z,0.60
2022-09-20T06:16:20.319Z,0.50
2022-09-20T06:21:27.019Z,0.53
2022-09-20T06:26:23.548Z,0.55
2022-09-20T06:31:15.733Z,0.45
2022-09-20T06:36:22.266Z,0.70
2022-09-20T06:41:28.781Z,0.73
2022-09-20T06:46:21.240Z,0.70
2022-09-20T06:51:12.753Z,1.00
2022-09-20T06:56:04.986Z,1.10
2022-09-20T07:00:58.418Z,0.80
2022-09-20T07:05:49.019Z,1.02
2022-09-20T07:10:40.704Z,0.98
2022-09-20T07:15:33.620Z,0.80
2022-09-20T07:20:27.013Z,0.90
2022-09-20T07:25:18.269Z,1.05
2022-09-20T07:30:13.915Z,1.05
2022-09-20T07:35:04.644Z,0.60
2022-09-20T07:39:57.821Z,0.40
2022-09-20T07:44:51.473Z,0.50
2022-09-20T07:49:41.806Z,0.68
2022-09-20T07:54:32.566Z,0.60
2022-09-20T07:59:28.315Z,0.50
2022-09-20T08:04:19.093Z,0.43
2022-09-20T08:09:11.306Z,0.60
2022-09-20T08:14:05.205Z,0.40
2022-09-20T08:19:00.833Z,0.40
2022-09-20T08:23:54.187Z,0.40
2022-09-20T08:28:47.975Z,0.40
2022-09-20T08:33:39.056Z,0.70
2022-09-20T08:43:46.815Z,0.45
2022-09-20T08:48:38.942Z,0.70
2022-09-20T08:53:32.269Z,0.30
2022-09-20T08:58:21.884Z,0.30
2022-09-20T09:03:16.968Z,0.30
2022-09-20T09:08:16.224Z,0.30
2022-09-20T09:13:09.725Z,0.20
2022-09-20T09:18:01.513Z,0.50
2022-09-20T09:23:00.873Z,0.50
2022-09-20T09:27:57.172Z,0.57
2022-09-20T09:32:51.035Z,0.23
2022-09-20T09:37:40.863Z,0.20
2022-09-20T09:42:33.187Z,0.20
2022-09-20T09:47:31.298Z,0.30
2022-09-20T09:52:26.379Z,0.40
2022-09-20T09:57:46.748Z,0.20
2022-09-20T10:03:12.007Z,0.20
2022-09-20T10:08:18.542Z,0.20
2022-09-20T10:13:21.487Z,0.20
2022-09-20T10:18:36.559Z,0.20
2022-09-20T10:24:02.486Z,0.30
2022-09-20T10:29:05.793Z,0.38
2022-09-20T10:34:21.802Z,0.10
2022-09-20T10:39:24.902Z,0.15
2022-09-20T10:44:32.350Z,0.10
2022-09-20T10:49:38.852Z,0.10
2022-09-20T10:54:50.039Z,0.20
2022-09-20T10:59:49.232Z,0.10
2022-09-20T11:05:13.276Z,0.20
2022-09-20T11:10:17.513Z,0.53
2022-09-20T11:15:18.740Z,0.30
2022-09-20T11:20:21.378Z,0.30
2022-09-20T11:25:24.977Z,0.50
2022-09-20T11:30:21.442Z,0.50
2022-09-20T11:35:34.348Z,0.30
2022-09-20T11:40:35.755Z,0.50
2022-09-20T11:45:28.678Z,0.50
2022-09-20T11:50:53.764Z,0.35
2022-09-20T11:55:54.420Z,0.30
2022-09-20T12:00:48.299Z,0.30
2022-09-20T12:05:42.002Z,0.40
2022-09-20T12:10:35.504Z,0.30
2022-09-20T12:15:34.402Z,0.20
2022-09-20T12:21:03.926Z,0.28
2022-09-20T12:26:06.786Z,0.20
2022-09-20T12:31:29.880Z,0.20
2022-09-20T12:36:23.695Z,0.10
2022-09-20T12:41:26.199Z,0.40
2022-09-20T12:46:32.885Z,0.20
2022-09-20T12:51:48.900Z,0.20
2022-09-20T12:56:46.668Z,0.20
2022-09-20T13:01:43.974Z,0.30
2022-09-20T13:06:37.278Z,0.50
2022-09-20T13:11:31.672Z,0.30
2022-09-20T13:16:25.936Z,0.30
2022-09-20T13:21:17.151Z,0.30
2022-09-20T13:26:16.376Z,0.10
2022-09-20T13:31:28.543Z,0.10
2022-09-20T13:36:30.416Z,0.20
2022-09-20T13:41:24.112Z,0.10
2022-09-20T13:46:19.884Z,0.15
2022-09-20T13:51:21.662Z,0.10
2022-09-20T13:56:17.345Z,0.10
2022-09-20T14:01:25.401Z,0.10
2022-09-20T14:06:18.067Z,0.10
2022-09-20T14:11:19.115Z,0.10
2022-09-20T14:16:13.520Z,0.20
2022-09-20T14:21:04.947Z,0.20
2022-09-20T14:26:24.917Z,0.10
2022-09-20T14:31:22.469Z,0.10
2022-09-20T14:36:18.751Z,0.10
2022-09-20T14:41:09.570Z,0.10
2022-09-20T14:46:03.639Z,0.20
2022-09-20T14:51:22.681Z,0.10
2022-09-20T14:56:15.354Z,0.10
2022-09-20T15:01:09.970Z,0.10
2022-09-20T15:06:01.127Z,0.10
2022-09-20T15:10:56.618Z,0.10
2022-09-20T15:15:49.634Z,0.10
2022-09-20T15:20:42.504Z,0.20
2022-09-20T15:25:34.110Z,0.10
2022-09-20T15:30:26.814Z,0.10
2022-09-20T15:35:16.751Z,0.10
2022-09-20T15:40:10.225Z,0.10
2022-09-20T15:45:00.519Z,0.10
2022-09-20T15:49:55.266Z,0.20
2022-09-20T15:54:48.450Z,0.10
2022-09-20T15:59:44.736Z,0.10
2022-09-20T16:04:36.593Z,0.10
2022-09-20T16:09:30.108Z,0.10
2022-09-20T16:14:20.437Z,0.10
2022-09-20T16:19:23.150Z,0.22
2022-09-20T16:24:16.247Z,0.10
2022-09-20T17:12:58.473Z,0.10
2022-09-20T17:17:50.620Z,0.15
